createdAt,value
2022-09-24T00:00:16.785Z,71.91
2022-09-24T00:05:43.195Z,71.02
2022-09-24T00:10:50.930Z,71.31
2022-09-24T00:15:56.809Z,71.67
2022-09-24T00:21:12.138Z,72.03
2022-09-24T00:26:52.187Z,70.42
2022-09-24T00:31:58.138Z,70.42
2022-09-24T00:37:04.251Z,71.60
2022-09-24T00:42:12.315Z,72.03
2022-09-24T00:47:30.461Z,73.40
2022-09-24T00:52:40.081Z,73.23
2022-09-24T00:57:49.314Z,74.22
2022-09-24T01:03:01.431Z,74.09
2022-09-24T01:08:08.678Z,73.48
2022-09-24T01:13:51.954Z,73.57
2022-09-24T01:19:13.512Z,73.47
2022-09-24T01:25:00.063Z,73.33
2022-09-24T01:30:10.825Z,74.03
2022-09-24T01:35:22.342Z,74.09
2022-09-24T01:40:31.894Z,74.31
2022-09-24T01:45:41.708Z,74.97
2022-09-24T01:50:56.695Z,74.83
2022-09-24T01:56:09.825Z,73.19
2022-09-24T02:01:24.175Z,73.20
2022-09-24T02:06:36.509Z,72.79
2022-09-24T02:11:42.690Z,72.67
2022-09-24T02:16:52.094Z,71.78
2022-09-24T02:21:59.050Z,71.65
2022-09-24T02:27:05.136Z,72.25
2022-09-24T02:32:17.065Z,72.33
2022-09-24T02:37:26.103Z,72.30
2022-09-24T02:42:32.544Z,72.88
2022-09-24T02:47:40.904Z,72.39
2022-09-24T02:52:47.051Z,72.31
2022-09-24T02:57:52.951Z,71.62
2022-09-24T03:03:00.528Z,69.93
2022-09-24T03:08:07.821Z,70.59
2022-09-24T03:13:13.858Z,70.41
2022-09-24T03:18:21.431Z,72.32
2022-09-24T03:23:28.352Z,71.59
2022-09-24T03:28:34.634Z,71.20
2022-09-24T03:33:44.043Z,70.60
2022-09-24T03:38:52.451Z,71.22
2022-09-24T03:43:58.532Z,70.28
2022-09-24T03:49:06.005Z,70.57
2022-09-24T03:54:11.992Z,71.01
2022-09-24T03:59:18.138Z,70.52
2022-09-24T04:04:25.839Z,70.36
2022-09-24T04:09:32.207Z,71.60
2022-09-24T04:14:38.480Z,72.44
2022-09-24T04:19:45.819Z,71.81
2022-09-24T04:24:52.916Z,70.88
2022-09-24T04:29:58.779Z,70.82
2022-09-24T04:35:07.697Z,70.80
2022-09-24T04:40:14.342Z,70.50
2022-09-24T04:45:21.264Z,69.54
2022-09-24T04:50:33.574Z,71.12
2022-09-24T04:55:39.813Z,71.81
2022-09-24T05:00:46.058Z,71.19
2022-09-24T05:05:53.586Z,72.13
2022-09-24T05:11:00.360Z,71.64
2022-09-24T05:16:06.718Z,71.18
2022-09-24T05:21:14.183Z,73.94
2022-09-24T05:26:37.596Z,74.32
2022-09-24T05:31:43.579Z,73.89
2022-09-24T05:36:51.081Z,73.59
2022-09-24T05:41:57.788Z,73.38
2022-09-24T05:47:03.783Z,74.27
2022-09-24T05:52:11.368Z,75.35
2022-09-24T05:57:17.651Z,75.98
2022-09-24T06:02:25.027Z,76.71
2022-09-24T06:07:32.588Z,77.89
2022-09-24T06:12:38.593Z,77.45
2022-09-24T06:17:44.686Z,78.60
2022-09-24T06:22:52.158Z,78.54
2022-09-24T06:28:00.920Z,78.45
2022-09-24T06:33:10.111Z,78.11
2022-09-24T06:38:20.054Z,78.26
2022-09-24T06:43:25.969Z,78.39
2022-09-24T06:48:32.672Z,79.04
2022-09-24T06:53:40.057Z,78.41
2022-09-24T06:58:46.843Z,77.68
2022-09-24T07:03:53.130Z,77.07
2022-09-24T07:09:01.538Z,77.73
2022-09-24T07:14:07.954Z,80.32
2022-09-24T07:19:14.015Z,81.66
2022-09-24T07:24:21.608Z,83.40
2022-09-24T07:29:27.970Z,84.05
2022-09-24T07:34:35.016Z,84.79
2022-09-24T07:39:42.599Z,85.45
2022-09-24T07:44:48.983Z,84.92
2022-09-24T07:49:55.255Z,84.92
2022-09-24T07:55:02.765Z,84.43
2022-09-24T08:00:13.353Z,84.76
2022-09-24T08:05:19.715Z,84.32
2022-09-24T08:10:29.470Z,84.33
2022-09-24T08:15:36.013Z,84.29
2022-09-24T08:20:42.032Z,83.74
2022-09-24T08:25:49.735Z,82.75
2022-09-24T08:31:00.906Z,81.63
2022-09-24T08:36:10.574Z,81.34
2022-09-24T08:42:02.600Z,78.83
2022-09-24T08:47:25.470Z,78.99
2022-09-24T08:53:03.487Z,79.49
2022-09-24T08:58:44.316Z,75.17
2022-09-24T09:03:58.192Z,72.43
2022-09-24T09:09:12.827Z,73.54
2022-09-24T09:14:30.606Z,72.55
2022-09-24T09:19:39.656Z,71.82
2022-09-24T09:24:51.052Z,71.16
2022-09-24T09:30:07.168Z,70.77
2022-09-24T09:35:23.602Z,71.36
2022-09-24T09:40:38.106Z,69.00
2022-09-24T09:46:01.011Z,67.15
2022-09-24T09:51:08.370Z,68.66
2022-09-24T09:56:14.674Z,70.11
2022-09-24T10:01:22.158Z,69.74
2022-09-24T10:06:31.567Z,68.13
2022-09-24T10:11:38.049Z,67.50
2022-09-24T10:16:53.525Z,68.77
2022-09-24T10:22:08.817Z,66.29
2022-09-24T10:27:22.689Z,66.82
2022-09-24T10:32:31.206Z,62.89
2022-09-24T10:37:37.504Z,60.75
2022-09-24T10:42:43.405Z,62.30
2022-09-24T10:47:59.152Z,62.52
2022-09-24T10:53:14.458Z,61.99
2022-09-24T10:58:43.228Z,59.31
2022-09-24T11:04:21.234Z,60.86
2022-09-24T11:09:38.735Z,60.21
2022-09-24T11:15:08.590Z,59.47
2022-09-24T11:20:38.486Z,59.93
2022-09-24T11:25:56.153Z,59.88
2022-09-24T11:31:13.858Z,58.98
2022-09-24T11:36:43.409Z,53.74
2022-09-24T11:42:03.081Z,52.89
2022-09-24T11:47:26.511Z,52.75
2022-09-24T11:52:40.873Z,52.98
2022-09-24T11:57:54.536Z,53.66
2022-09-24T12:03:07.789Z,56.47
2022-09-24T12:08:19.239Z,52.64
2022-09-24T12:13:31.675Z,54.51
2022-09-24T12:18:47.149Z,56.52
2022-09-24T12:24:02.791Z,56.22
2022-09-24T12:29:55.366Z,56.28
2022-09-24T12:35:13.441Z,56.11
2022-09-24T12:40:54.660Z,56.74
2022-09-24T12:46:04.320Z,57.50
2022-09-24T12:51:12.058Z,57.52
2022-09-24T12:56:28.164Z,57.25
2022-09-24T13:01:36.076Z,57.18
2022-09-24T13:06:45.344Z,58.18
2022-09-24T13:12:21.545Z,58.62
2022-09-24T13:17:27.686Z,58.38
2022-09-24T13:22:36.284Z,58.74
2022-09-24T13:27:45.611Z,58.18
2022-09-24T13:32:58.980Z,56.56
2022-09-24T13:38:15.113Z,56.95
2022-09-24T13:43:44.285Z,57.19
2022-09-24T13:48:54.511Z,56.24
2022-09-24T13:54:09.746Z,56.49
2022-09-24T13:59:18.387Z,56.63
2022-09-24T14:04:25.223Z,56.87
2022-09-24T14:09:36.526Z,56.88
2022-09-24T14:14:47.696Z,58.90
2022-09-24T14:19:58.446Z,58.16
2022-09-24T14:25:09.416Z,57.00
2022-09-24T14:30:23.880Z,56.63
2022-09-24T14:35:35.025Z,55.56
2022-09-24T14:40:44.983Z,56.42
2022-09-24T14:45:53.718Z,57.36
2022-09-24T14:51:00.054Z,58.35
2022-09-24T14:56:21.742Z,57.45
2022-09-24T15:01:35.384Z,57.29
2022-09-24T15:06:47.245Z,58.00
2022-09-24T15:11:55.571Z,57.81
2022-09-24T15:17:23.650Z,59.61
2022-09-24T15:22:31.484Z,60.39
2022-09-24T15:27:42.422Z,60.99
2022-09-24T15:32:51.621Z,61.27
2022-09-24T15:38:00.673Z,62.52
2022-09-24T15:43:17.182Z,62.88
2022-09-24T15:48:25.052Z,64.39
2022-09-24T15:53:32.325Z,64.93
2022-09-24T15:58:39.077Z,66.03
2022-09-24T16:03:47.416Z,66.22
2022-09-24T16:08:55.889Z,65.85
2022-09-24T16:14:05.998Z,66.26
2022-09-24T16:19:13.625Z,67.02
2022-09-24T16:24:20.577Z,67.96
2022-09-24T16:29:26.822Z,69.08
2022-09-24T16:34:34.793Z,70.05
2022-09-24T16:39:41.087Z,69.42
2022-09-24T16:44:48.294Z,69.50
2022-09-24T16:49:56.792Z,70.21
2022-09-24T16:55:02.898Z,70.17
2022-09-24T17:00:12.031Z,70.62
2022-09-24T17:05:19.915Z,70.68
2022-09-24T17:10:26.133Z,70.91
2022-09-24T17:15:32.283Z,70.75
2022-09-24T17:20:39.815Z,70.87
2022-09-24T17:25:45.950Z,71.49
2022-09-24T17:30:53.698Z,71.38
2022-09-24T17:36:05.921Z,71.46
2022-09-24T17:41:14.550Z,71.99
2022-09-24T17:46:23.644Z,71.75
2022-09-24T17:51:34.313Z,72.34
2022-09-24T17:56:40.850Z,72.10
2022-09-24T18:01:48.179Z,73.66
2022-09-24T18:06:56.096Z,73.21
2022-09-24T18:12:02.798Z,73.63
2022-09-24T18:17:09.050Z,73.02
2022-09-24T18:22:16.747Z,73.54
2022-09-24T18:27:25.767Z,72.97
2022-09-24T18:32:32.408Z,73.00
2022-09-24T18:37:40.573Z,73.52
2022-09-24T18:42:46.853Z,73.58
2022-09-24T18:47:53.641Z,73.58
2022-09-24T18:53:01.604Z,73.16
2022-09-24T18:58:08.301Z,73.69
2022-09-24T19:03:14.711Z,75.19
2022-09-24T19:08:25.253Z,74.35
2022-09-24T19:13:32.326Z,73.65
2022-09-24T19:18:39.507Z,73.38
2022-09-24T19:23:49.496Z,72.77
2022-09-24T19:28:56.662Z,72.61
2022-09-24T19:34:03.763Z,72.51
2022-09-24T19:39:11.916Z,72.91
2022-09-24T19:44:18.075Z,72.33
2022-09-24T19:49:24.912Z,72.87
2022-09-24T19:54:32.975Z,72.42
2022-09-24T19:59:39.471Z,72.25
2022-09-24T20:04:46.720Z,72.35
2022-09-24T20:09:57.092Z,72.35
2022-09-24T20:15:03.168Z,72.59
2022-09-24T20:20:10.522Z,73.61
2022-09-24T20:25:18.364Z,73.97
2022-09-24T20:30:25.684Z,74.27
2022-09-24T20:35:31.889Z,73.82
2022-09-24T20:40:42.901Z,73.82
2022-09-24T20:45:49.005Z,72.94
2022-09-24T20:50:57.194Z,73.68
2022-09-24T20:56:06.200Z,74.70
2022-09-24T21:01:12.634Z,73.89
2022-09-24T21:06:23.146Z,74.33
2022-09-24T21:11:31.418Z,74.50
2022-09-24T21:16:37.966Z,74.54
2022-09-24T21:21:44.445Z,74.15
2022-09-24T21:26:51.853Z,74.42
2022-09-24T21:31:57.818Z,74.33
2022-09-24T21:37:04.297Z,74.49
2022-09-24T21:42:11.685Z,75.35
2022-09-24T21:47:18.382Z,74.51
2022-09-24T21:52:24.425Z,74.89
2022-09-24T21:57:32.145Z,73.86
2022-09-24T22:02:42.642Z,73.73
2022-09-24T22:07:49.577Z,73.79
2022-09-24T22:12:57.550Z,74.61
2022-09-24T22:18:03.915Z,74.78
2022-09-24T22:23:10.204Z,76.38
2022-09-24T22:28:20.671Z,77.36
2022-09-24T22:33:47.485Z,79.21
2022-09-24T22:38:56.276Z,79.25
2022-09-24T22:44:04.117Z,78.14
2022-09-24T22:49:11.139Z,79.07
2022-09-24T22:54:18.636Z,78.60
2022-09-24T22:59:25.993Z,78.62
2022-09-24T23:04:32.877Z,79.81
2022-09-24T23:09:38.968Z,80.25
2022-09-24T23:14:46.749Z,79.41
2022-09-24T23:19:53.041Z,79.12
2022-09-24T23:24:59.004Z,78.46
2022-09-24T23:30:07.763Z,78.20
2022-09-24T23:35:43.257Z,78.14
2022-09-24T23:40:51.136Z,78.12
2022-09-24T23:45:58.932Z,76.95
2022-09-24T23:51:04.898Z,77.17
2022-09-24T23:56:11.073Z,76.52
